Time;durP1;ratioP1;P1;durP2;ratioP2;P2;SDS_P1;SDS_P2;PMS_P1;PMS_P2;Temp;Humidity;BMP_temperature;BMP_pressure;BME280_temperature;BME280_humidity;BME280_pressure;Samples;Min_cycle;Max_cycle;Signal;HPM_P1;HPM_P2
2023/09/02 00:00:08;;;;;;;2.95;2.10;;;;;;;;;;5072740;28;20020;-85
2023/09/02 00:02:34;;;;;;;3.20;2.10;;;;;;;;;;5058603;28;20483;-84
2023/09/02 00:04:59;;;;;;;5.15;2.80;;;;;;;;;;5064995;28;20029;-85
2023/09/02 00:07:24;;;;;;;6.10;2.22;;;;;;;;;;5065846;28;20027;-85
2023/09/02 00:09:50;;;;;;;3.47;2.17;;;;;;;;;;5064433;28;20024;-85
2023/09/02 00:12:15;;;;;;;5.93;2.78;;;;;;;;;;5065423;28;20051;-85
2023/09/02 00:14:40;;;;;;;4.32;2.60;;;;;;;;;;5072049;28;20096;-85
2023/09/02 00:17:05;;;;;;;8.27;3.45;;;;;;;;;;5072321;28;20024;-85
2023/09/02 00:19:31;;;;;;;6.00;2.00;;;;;;;;;;5058216;28;20032;-85
2023/09/02 00:21:56;;;;;;;19.42;2.40;;;;;;;;;;5072278;28;20028;-85
2023/09/02 00:24:24;;;;;;;2.70;1.90;;;;;;;;;;5071884;28;20024;-85
2023/09/02 00:26:49;;;;;;;4.75;2.42;;;;;;;;;;5064577;28;20043;-85
2023/09/02 00:29:14;;;;;;;5.43;2.63;;;;;;;;;;5065735;28;20021;-85
2023/09/02 00:31:40;;;;;;;10.05;2.65;;;;;;;;;;5064139;28;20032;-84
2023/09/02 00:34:08;;;;;;;6.88;2.85;;;;;;;;;;5071641;28;20016;-85
2023/09/02 00:36:33;;;;;;;4.53;3.25;;;;;;;;;;5072222;28;20530;-85
2023/09/02 00:38:59;;;;;;;6.55;3.97;;;;;;;;;;5067619;28;20337;-83
2023/09/02 00:41:24;;;;;;;6.18;3.75;;;;;;;;;;5072453;28;20046;-85
2023/09/02 00:43:50;;;;;;;6.60;3.70;;;;;;;;;;5070578;28;20074;-84
2023/09/02 00:46:15;;;;;;;7.97;4.45;;;;;;;;;;5068356;28;20029;-85
2023/09/02 00:48:43;;;;;;;15.05;4.95;;;;;;;;;;5078871;28;20108;-85
2023/09/02 00:51:08;;;;;;;8.60;4.90;;;;;;;;;;5078051;28;20039;-85
2023/09/02 00:53:34;;;;;;;9.50;5.22;;;;;;;;;;5076520;28;20016;-85
2023/09/02 00:56:02;;;;;;;9.43;5.15;;;;;;;;;;5076651;28;20023;-85
2023/09/02 00:58:27;;;;;;;6.88;4.47;;;;;;;;;;5076937;28;20017;-85
2023/09/02 01:00:53;;;;;;;7.25;5.07;;;;;;;;;;5076076;28;20111;-85
2023/09/02 01:03:18;;;;;;;11.07;4.97;;;;;;;;;;5075841;28;20091;-85
2023/09/02 01:05:44;;;;;;;8.65;4.85;;;;;;;;;;5075879;28;20502;-85
2023/09/02 01:08:11;;;;;;;13.02;4.53;;;;;;;;;;5071630;28;20036;-85
2023/09/02 01:10:37;;;;;;;11.25;4.75;;;;;;;;;;5056370;28;20116;-85
2023/09/02 01:13:03;;;;;;;8.10;5.15;;;;;;;;;;5074864;28;20048;-85
2023/09/02 01:15:28;;;;;;;11.52;5.47;;;;;;;;;;5075630;28;20021;-85
2023/09/02 01:17:54;;;;;;;8.77;4.88;;;;;;;;;;5075288;28;20020;-84
2023/09/02 01:20:21;;;;;;;7.85;4.97;;;;;;;;;;5075637;28;20025;-85
2023/09/02 01:22:57;;;;;;;10.85;4.82;;;;;;;;;;5074081;28;20966;-86
2023/09/02 01:25:42;;;;;;;13.30;5.05;;;;;;;;;;5097493;28;20101;-85
2023/09/02 01:28:10;;;;;;;7.05;4.80;;;;;;;;;;5075001;28;20383;-85
2023/09/02 01:30:36;;;;;;;7.93;4.85;;;;;;;;;;5075056;28;20088;-85
2023/09/02 01:33:03;;;;;;;7.07;4.75;;;;;;;;;;5074705;28;20179;-85
2023/09/02 01:35:29;;;;;;;7.88;5.03;;;;;;;;;;5068731;28;20463;-85
2023/09/02 01:37:55;;;;;;;10.57;4.43;;;;;;;;;;5069503;28;20361;-85
2023/09/02 01:40:26;;;;;;;6.22;4.15;;;;;;;;;;5074854;28;20103;-85
2023/09/02 01:42:53;;;;;;;7.45;3.70;;;;;;;;;;5064488;28;20452;-85
2023/09/02 01:45:19;;;;;;;7.05;3.78;;;;;;;;;;5073130;28;20488;-85
2023/09/02 01:47:45;;;;;;;5.82;3.40;;;;;;;;;;5064754;28;20028;-85
2023/09/02 01:50:12;;;;;;;4.60;2.72;;;;;;;;;;5072541;28;20013;-85
2023/09/02 01:52:38;;;;;;;5.18;3.03;;;;;;;;;;5073916;28;20444;-85
2023/09/02 01:55:04;;;;;;;5.72;3.00;;;;;;;;;;5073553;28;20020;-85
2023/09/02 01:57:30;;;;;;;7.32;2.45;;;;;;;;;;5074555;28;20016;-84
2023/09/02 01:59:55;;;;;;;5.45;2.58;;;;;;;;;;5076094;28;20452;-85
2023/09/02 02:02:21;;;;;;;9.40;3.10;;;;;;;;;;5075009;28;20024;-85
2023/09/02 02:04:50;;;;;;;4.00;2.60;;;;;;;;;;5074424;28;20048;-85
2023/09/02 02:07:24;;;;;;;3.85;2.90;;;;;;;;;;5074198;28;20021;-85
2023/09/02 02:09:52;;;;;;;7.22;2.85;;;;;;;;;;5075606;28;20028;-85
2023/09/02 02:12:17;;;;;;;7.72;2.75;;;;;;;;;;5074215;28;20032;-85
2023/09/02 02:14:44;;;;;;;8.43;2.80;;;;;;;;;;5074269;28;20062;-85
2023/09/02 02:17:09;;;;;;;7.97;2.70;;;;;;;;;;5075721;28;20067;-84
2023/09/02 02:19:35;;;;;;;4.93;2.70;;;;;;;;;;5073659;28;20017;-85
2023/09/02 02:22:00;;;;;;;8.70;2.70;;;;;;;;;;5074078;28;20107;-85
2023/09/02 02:24:28;;;;;;;8.52;2.67;;;;;;;;;;5074066;28;20009;-85
2023/09/02 02:26:54;;;;;;;7.55;2.42;;;;;;;;;;5074206;28;20016;-85
2023/09/02 02:29:19;;;;;;;7.25;2.50;;;;;;;;;;5074327;28;20092;-85
2023/09/02 02:31:52;;;;;;;8.95;2.50;;;;;;;;;;5073838;28;20046;-84
2023/09/02 02:34:17;;;;;;;3.03;2.13;;;;;;;;;;5072924;28;20387;-84
2023/09/02 02:36:42;;;;;;;8.13;2.30;;;;;;;;;;5073836;28;20020;-85
2023/09/02 02:39:08;;;;;;;7.80;2.50;;;;;;;;;;5073637;28;20113;-85
2023/09/02 02:41:33;;;;;;;4.03;2.10;;;;;;;;;;5073538;28;20113;-85
2023/09/02 02:43:59;;;;;;;4.80;2.20;;;;;;;;;;5073695;28;20116;-85
2023/09/02 02:46:24;;;;;;;6.97;2.40;;;;;;;;;;5074930;28;20444;-85
2023/09/02 02:48:49;;;;;;;8.30;2.17;;;;;;;;;;5067262;28;20029;-85
2023/09/02 02:51:15;;;;;;;3.13;2.08;;;;;;;;;;5064924;28;20021;-85
2023/09/02 02:53:40;;;;;;;8.27;2.35;;;;;;;;;;5066160;28;20426;-85
2023/09/02 02:56:05;;;;;;;5.35;2.42;;;;;;;;;;5064489;28;20452;-85
2023/09/02 02:58:33;;;;;;;7.40;2.47;;;;;;;;;;5068583;28;20031;-85
2023/09/02 03:01:06;;;;;;;11.70;2.45;;;;;;;;;;5073895;28;20044;-85
2023/09/02 03:03:32;;;;;;;6.90;2.05;;;;;;;;;;5072752;28;20016;-85
2023/09/02 03:06:00;;;;;;;6.78;1.75;;;;;;;;;;5073517;28;20032;-85
2023/09/02 03:08:25;;;;;;;9.38;2.10;;;;;;;;;;5073338;28;20035;-85
2023/09/02 03:10:57;;;;;;;5.82;2.38;;;;;;;;;;5074406;28;20017;-85
2023/09/02 03:13:24;;;;;;;3.53;1.92;;;;;;;;;;5073591;28;20017;-85
2023/09/02 03:15:49;;;;;;;3.35;2.00;;;;;;;;;;5073574;28;20051;-85
2023/09/02 03:18:15;;;;;;;4.93;2.05;;;;;;;;;;5074161;28;20016;-85
2023/09/02 03:20:40;;;;;;;6.05;2.17;;;;;;;;;;5073756;28;20039;-85
2023/09/02 03:23:06;;;;;;;4.53;2.20;;;;;;;;;;5063420;28;20019;-85
2023/09/02 03:25:31;;;;;;;8.13;2.10;;;;;;;;;;5073341;28;20021;-85
2023/09/02 03:27:57;;;;;;;4.30;2.53;;;;;;;;;;5072283;28;20021;-85
2023/09/02 03:30:22;;;;;;;2.95;1.70;;;;;;;;;;5061817;28;20020;-86
2023/09/02 03:32:47;;;;;;;7.07;2.13;;;;;;;;;;5066337;28;20025;-85
2023/09/02 03:35:12;;;;;;;6.20;2.10;;;;;;;;;;5062225;28;20032;-85
2023/09/02 03:37:38;;;;;;;6.10;1.77;;;;;;;;;;5072561;28;20025;-85
2023/09/02 03:40:03;;;;;;;2.45;1.77;;;;;;;;;;5072853;28;20027;-85
2023/09/02 03:42:29;;;;;;;4.03;1.90;;;;;;;;;;5072697;28;20020;-85
2023/09/02 03:44:54;;;;;;;3.90;1.80;;;;;;;;;;5070671;28;20077;-86
2023/09/02 03:47:19;;;;;;;8.55;1.77;;;;;;;;;;5059429;28;20505;-85
2023/09/02 03:49:45;;;;;;;4.15;1.90;;;;;;;;;;5072301;28;20195;-86
2023/09/02 03:52:10;;;;;;;3.92;1.70;;;;;;;;;;5072105;28;20066;-85
2023/09/02 03:54:38;;;;;;;4.82;1.80;;;;;;;;;;5073908;28;20040;-85
2023/09/02 03:57:05;;;;;;;3.08;2.00;;;;;;;;;;5058413;28;20080;-85
2023/09/02 03:59:33;;;;;;;2.65;1.40;;;;;;;;;;5071644;28;20035;-85
2023/09/02 04:01:58;;;;;;;2.35;1.60;;;;;;;;;;5071913;28;20028;-84
2023/09/02 04:04:25;;;;;;;5.03;1.70;;;;;;;;;;5072248;28;20027;-85
2023/09/02 04:06:51;;;;;;;5.18;2.20;;;;;;;;;;5072018;28;20441;-84
2023/09/02 04:09:16;;;;;;;2.63;1.70;;;;;;;;;;5072005;28;20103;-83
2023/09/02 04:11:42;;;;;;;3.20;2.10;;;;;;;;;;5067181;28;20035;-85
2023/09/02 04:14:07;;;;;;;4.03;1.70;;;;;;;;;;5071985;28;20039;-85
2023/09/02 04:16:33;;;;;;;12.15;2.38;;;;;;;;;;5072644;28;20017;-83
2023/09/02 04:19:02;;;;;;;3.13;2.15;;;;;;;;;;5072265;28;20028;-84
2023/09/02 04:21:28;;;;;;;6.93;1.92;;;;;;;;;;5073239;28;20339;-85
2023/09/02 04:23:53;;;;;;;6.50;1.95;;;;;;;;;;5073339;28;20131;-85
2023/09/02 04:26:19;;;;;;;7.15;1.90;;;;;;;;;;5066887;28;20032;-85
2023/09/02 04:28:47;;;;;;;8.40;1.90;;;;;;;;;;5060313;28;20337;-85
2023/09/02 04:31:13;;;;;;;6.82;1.92;;;;;;;;;;5071876;28;20048;-85
2023/09/02 04:33:38;;;;;;;3.20;2.03;;;;;;;;;;5075039;28;20348;-85
2023/09/02 04:36:04;;;;;;;3.33;1.73;;;;;;;;;;5073842;28;20456;-84
2023/09/02 04:38:29;;;;;;;4.07;1.95;;;;;;;;;;5072464;28;20024;-85
2023/09/02 04:40:55;;;;;;;3.13;1.80;;;;;;;;;;5071962;28;20021;-85
2023/09/02 04:43:20;;;;;;;2.17;1.60;;;;;;;;;;5070872;28;20017;-85
2023/09/02 04:45:46;;;;;;;3.75;2.00;;;;;;;;;;5060517;28;20062;-85
2023/09/02 04:48:11;;;;;;;2.03;1.60;;;;;;;;;;5073342;28;20522;-85
2023/09/02 04:50:38;;;;;;;4.50;1.52;;;;;;;;;;5071492;28;20023;-85
2023/09/02 04:53:04;;;;;;;1.88;1.55;;;;;;;;;;5072736;28;20367;-85
2023/09/02 04:55:29;;;;;;;9.95;1.92;;;;;;;;;;5072423;28;20116;-85
2023/09/02 04:57:57;;;;;;;9.32;2.17;;;;;;;;;;5072414;28;20033;-85
2023/09/02 05:00:24;;;;;;;4.00;1.85;;;;;;;;;;5071989;28;20048;-85
2023/09/02 05:02:49;;;;;;;4.72;2.03;;;;;;;;;;5072017;28;20013;-85
2023/09/02 05:05:16;;;;;;;5.75;2.00;;;;;;;;;;5071639;28;20031;-85
2023/09/02 05:07:41;;;;;;;2.42;1.90;;;;;;;;;;5072952;28;20095;-84
2023/09/02 05:10:07;;;;;;;4.57;2.22;;;;;;;;;;5067541;28;20119;-85
2023/09/02 05:12:33;;;;;;;2.80;1.92;;;;;;;;;;5071358;28;20095;-85
2023/09/02 05:14:58;;;;;;;3.00;1.90;;;;;;;;;;5070983;28;20456;-85
2023/09/02 05:17:24;;;;;;;6.32;2.33;;;;;;;;;;5057964;28;20079;-85
2023/09/02 05:19:49;;;;;;;3.45;2.30;;;;;;;;;;5071490;28;20036;-85
2023/09/02 05:22:14;;;;;;;4.07;2.40;;;;;;;;;;5071397;28;20025;-85
2023/09/02 05:24:40;;;;;;;8.07;2.83;;;;;;;;;;5071768;28;20037;-84
2023/09/02 05:27:06;;;;;;;3.92;2.30;;;;;;;;;;5071992;28;20021;-85
2023/09/02 05:29:31;;;;;;;4.35;2.53;;;;;;;;;;5067705;28;20464;-85
2023/09/02 05:31:56;;;;;;;3.72;2.38;;;;;;;;;;5065648;28;20020;-85
2023/09/02 05:34:22;;;;;;;5.60;2.22;;;;;;;;;;5062097;28;20104;-86
2023/09/02 05:36:50;;;;;;;7.22;2.30;;;;;;;;;;5076105;28;20016;-85
2023/09/02 05:39:15;;;;;;;8.27;2.00;;;;;;;;;;5076196;28;20050;-85
2023/09/02 05:41:40;;;;;;;5.35;2.30;;;;;;;;;;5075632;28;20120;-85
2023/09/02 05:44:06;;;;;;;6.10;2.30;;;;;;;;;;5075297;28;20028;-85
2023/09/02 05:46:31;;;;;;;3.88;2.20;;;;;;;;;;5061559;28;20025;-85
2023/09/02 05:48:56;;;;;;;4.00;2.20;;;;;;;;;;5075372;28;20384;-85
2023/09/02 05:51:22;;;;;;;3.67;2.20;;;;;;;;;;5076320;28;20111;-86
2023/09/02 05:53:47;;;;;;;6.90;2.50;;;;;;;;;;5075005;28;20015;-85
2023/09/02 05:56:12;;;;;;;6.05;2.60;;;;;;;;;;5075398;28;20448;-86
2023/09/02 05:58:38;;;;;;;10.68;2.22;;;;;;;;;;5068481;28;20017;-85
2023/09/02 06:01:03;;;;;;;6.30;2.25;;;;;;;;;;5074792;28;20051;-86
2023/09/02 06:03:29;;;;;;;10.55;2.42;;;;;;;;;;5074752;28;20017;-86
2023/09/02 06:05:54;;;;;;;5.68;2.50;;;;;;;;;;5075053;28;20490;-86
2023/09/02 06:08:19;;;;;;;4.60;2.88;;;;;;;;;;5074537;28;20032;-86
2023/09/02 06:10:54;;;;;;;6.38;2.55;;;;;;;;;;5068881;28;20031;-86
2023/09/02 06:13:22;;;;;;;5.20;2.35;;;;;;;;;;5074817;28;20100;-86
2023/09/02 06:15:47;;;;;;;6.30;2.22;;;;;;;;;;5074843;28;20024;-86
2023/09/02 06:18:12;;;;;;;3.50;2.53;;;;;;;;;;5074872;28;20021;-85
2023/09/02 06:20:38;;;;;;;4.70;2.08;;;;;;;;;;5075950;28;20095;-86
2023/09/02 06:23:03;;;;;;;3.50;2.70;;;;;;;;;;5073898;28;20017;-85
2023/09/02 06:25:28;;;;;;;4.47;2.38;;;;;;;;;;5074532;28;20028;-86
2023/09/02 06:27:53;;;;;;;4.13;2.35;;;;;;;;;;5073723;28;20020;-86
2023/09/02 06:30:19;;;;;;;10.70;2.47;;;;;;;;;;5063324;28;20028;-84
2023/09/02 06:32:44;;;;;;;5.68;2.90;;;;;;;;;;5066499;28;20028;-85
2023/09/02 06:35:14;;;;;;;5.35;2.42;;;;;;;;;;5068822;28;20025;-85
2023/09/02 06:37:40;;;;;;;4.03;2.70;;;;;;;;;;5065561;28;20119;-84
2023/09/02 06:40:08;;;;;;;4.43;2.60;;;;;;;;;;5061264;28;20120;-86
2023/09/02 06:42:33;;;;;;;7.55;3.00;;;;;;;;;;5074806;28;20021;-86
2023/09/02 06:44:58;;;;;;;7.30;3.30;;;;;;;;;;5073438;28;20055;-86
2023/09/02 06:47:24;;;;;;;4.28;3.05;;;;;;;;;;5068303;28;20029;-86
2023/09/02 06:49:49;;;;;;;4.93;3.08;;;;;;;;;;5073212;28;20044;-86
2023/09/02 06:52:15;;;;;;;8.48;3.10;;;;;;;;;;5069905;28;20021;-85
2023/09/02 06:54:40;;;;;;;8.48;3.28;;;;;;;;;;5070637;28;20107;-86
2023/09/02 06:57:05;;;;;;;7.53;3.20;;;;;;;;;;5075732;28;20021;-86
2023/09/02 06:59:32;;;;;;;7.82;3.65;;;;;;;;;;5073609;28;20051;-85
2023/09/02 07:01:58;;;;;;;5.13;3.10;;;;;;;;;;5073757;28;20021;-86
2023/09/02 07:04:23;;;;;;;5.60;3.35;;;;;;;;;;5074026;28;20020;-86
2023/09/02 07:06:48;;;;;;;5.00;2.97;;;;;;;;;;5074955;28;20013;-86
2023/09/02 07:09:13;;;;;;;4.85;3.03;;;;;;;;;;5068306;28;20052;-86
2023/09/02 07:11:39;;;;;;;4.57;3.03;;;;;;;;;;5064902;28;20036;-86
2023/09/02 07:14:04;;;;;;;5.63;3.85;;;;;;;;;;5072789;28;20566;-86
2023/09/02 07:16:29;;;;;;;7.53;3.38;;;;;;;;;;5072760;28;20462;-86
2023/09/02 07:18:55;;;;;;;6.35;4.22;;;;;;;;;;5073613;28;20021;-86
2023/09/02 07:21:23;;;;;;;7.68;3.30;;;;;;;;;;5072733;28;20038;-86
2023/09/02 07:23:49;;;;;;;6.78;3.75;;;;;;;;;;5072787;28;20016;-86
2023/09/02 07:26:14;;;;;;;6.35;3.75;;;;;;;;;;5059222;28;20032;-86
2023/09/02 07:28:42;;;;;;;7.55;3.70;;;;;;;;;;5068844;28;20090;-87
2023/09/02 07:31:11;;;;;;;8.93;4.10;;;;;;;;;;5088722;28;20120;-86
2023/09/02 07:33:36;;;;;;;5.45;3.70;;;;;;;;;;5064145;28;20104;-87
2023/09/02 07:36:09;;;;;;;6.25;3.58;;;;;;;;;;5065383;28;20044;-87
2023/09/02 07:38:34;;;;;;;6.85;3.55;;;;;;;;;;5064355;28;20059;-87
2023/09/02 07:40:59;;;;;;;5.25;3.60;;;;;;;;;;5062294;28;20028;-86
2023/09/02 07:43:24;;;;;;;8.82;3.60;;;;;;;;;;5070516;28;20032;-86
2023/09/02 07:45:50;;;;;;;9.40;4.75;;;;;;;;;;5072367;28;20237;-86
2023/09/02 07:48:15;;;;;;;9.40;5.20;;;;;;;;;;5073700;28;20020;-85
2023/09/02 07:50:41;;;;;;;9.73;5.15;;;;;;;;;;5072594;28;20429;-86
2023/09/02 07:53:06;;;;;;;11.63;6.00;;;;;;;;;;5071386;28;20088;-86
2023/09/02 07:55:31;;;;;;;10.02;4.78;;;;;;;;;;5071014;28;20492;-85
2023/09/02 07:57:59;;;;;;;8.45;4.88;;;;;;;;;;5070323;28;20017;-85
2023/09/02 08:00:25;;;;;;;7.20;4.47;;;;;;;;;;5069486;28;20070;-85
2023/09/02 08:02:50;;;;;;;7.88;4.72;;;;;;;;;;5072834;28;20493;-85
2023/09/02 08:05:15;;;;;;;7.85;4.53;;;;;;;;;;5073362;28;20024;-86
2023/09/02 08:07:41;;;;;;;8.32;4.75;;;;;;;;;;5072513;28;20086;-86
2023/09/02 08:10:06;;;;;;;12.40;4.80;;;;;;;;;;5069291;28;20361;-84
2023/09/02 08:12:33;;;;;;;7.35;4.82;;;;;;;;;;5071621;28;20044;-83
2023/09/02 08:14:58;;;;;;;8.02;4.22;;;;;;;;;;5070665;28;20420;-86
2023/09/02 08:17:24;;;;;;;7.95;4.65;;;;;;;;;;5070981;28;20069;-87
2023/09/02 08:19:49;;;;;;;8.65;4.13;;;;;;;;;;5074857;28;20021;-86
2023/09/02 08:22:17;;;;;;;10.60;4.18;;;;;;;;;;5071420;28;20073;-86
2023/09/02 08:24:42;;;;;;;12.30;4.30;;;;;;;;;;5068376;28;20097;-86
2023/09/02 08:27:08;;;;;;;9.55;4.15;;;;;;;;;;5072172;28;20028;-87
2023/09/02 08:29:33;;;;;;;9.35;4.03;;;;;;;;;;5072233;28;20493;-87
2023/09/02 08:31:58;;;;;;;15.32;4.65;;;;;;;;;;5071958;28;20154;-87
2023/09/02 08:34:24;;;;;;;10.85;4.07;;;;;;;;;;5072339;28;20032;-86
2023/09/02 08:36:49;;;;;;;8.43;4.15;;;;;;;;;;5068655;28;20025;-87
2023/09/02 08:39:14;;;;;;;7.85;4.18;;;;;;;;;;5060742;28;20099;-87
2023/09/02 08:41:40;;;;;;;5.55;3.53;;;;;;;;;;5070092;28;20397;-87
2023/09/02 08:44:06;;;;;;;10.50;4.28;;;;;;;;;;5071562;28;20025;-86
2023/09/02 08:46:32;;;;;;;7.35;4.38;;;;;;;;;;5070843;28;20108;-86
2023/09/02 08:48:58;;;;;;;14.85;4.88;;;;;;;;;;5061732;28;20020;-86
2023/09/02 08:51:24;;;;;;;8.38;4.05;;;;;;;;;;5065232;28;20017;-87
2023/09/02 08:53:50;;;;;;;10.35;4.72;;;;;;;;;;5073060;28;20422;-87
2023/09/02 08:56:16;;;;;;;6.93;4.57;;;;;;;;;;5066990;28;20380;-87
2023/09/02 08:58:41;;;;;;;10.38;4.72;;;;;;;;;;5071723;28;20458;-86
2023/09/02 09:01:07;;;;;;;6.00;3.53;;;;;;;;;;5071880;28;20482;-86
2023/09/02 09:03:33;;;;;;;7.65;4.80;;;;;;;;;;5069976;28;20028;-87
2023/09/02 09:05:59;;;;;;;7.95;4.68;;;;;;;;;;5073956;28;20063;-86
2023/09/02 09:08:25;;;;;;;8.90;4.97;;;;;;;;;;5073885;28;20032;-86
2023/09/02 09:10:51;;;;;;;11.23;6.20;;;;;;;;;;5075334;28;20028;-86
2023/09/02 09:13:20;;;;;;;6.78;4.78;;;;;;;;;;5075424;28;20035;-86
2023/09/02 09:15:46;;;;;;;8.25;4.72;;;;;;;;;;5060967;28;20009;-86
2023/09/02 09:18:12;;;;;;;8.85;5.00;;;;;;;;;;5069331;28;20031;-86
2023/09/02 09:20:38;;;;;;;9.63;5.05;;;;;;;;;;5069723;28;20111;-86
2023/09/02 09:23:07;;;;;;;10.98;5.25;;;;;;;;;;5074719;28;20017;-86
2023/09/02 09:25:33;;;;;;;10.45;5.03;;;;;;;;;;5074775;28;20024;-85
2023/09/02 09:28:11;;;;;;;7.50;4.10;;;;;;;;;;5067061;28;20448;-86
2023/09/02 09:30:37;;;;;;;10.15;4.88;;;;;;;;;;5097751;28;20024;-86
2023/09/02 09:33:05;;;;;;;9.35;4.18;;;;;;;;;;5075497;28;20016;-86
2023/09/02 09:35:30;;;;;;;13.00;5.05;;;;;;;;;;5073419;28;20960;-86
2023/09/02 09:37:56;;;;;;;14.85;6.30;;;;;;;;;;5071914;28;20107;-86
2023/09/02 09:40:32;;;;;;;12.95;5.32;;;;;;;;;;5061143;28;20017;-86
2023/09/02 09:42:58;;;;;;;6.85;3.70;;;;;;;;;;5072468;28;20117;-86
2023/09/02 09:45:24;;;;;;;9.95;3.67;;;;;;;;;;5076557;28;20013;-86
2023/09/02 09:47:49;;;;;;;8.68;3.70;;;;;;;;;;5074590;28;20459;-87
2023/09/02 09:50:15;;;;;;;6.30;3.75;;;;;;;;;;5073848;28;20392;-87
2023/09/02 09:52:41;;;;;;;11.25;3.30;;;;;;;;;;5073736;28;20111;-87
2023/09/02 09:55:21;;;;;;;6.32;2.40;;;;;;;;;;5073083;28;20063;-87
2023/09/02 09:57:52;;;;;;;6.55;3.05;;;;;;;;;;5072155;28;20020;-86
2023/09/02 10:00:17;;;;;;;8.73;4.18;;;;;;;;;;5071593;28;20091;-86
2023/09/02 10:02:49;;;;;;;9.50;4.25;;;;;;;;;;5070179;28;20044;-86
2023/09/02 10:05:22;;;;;;;17.13;5.03;;;;;;;;;;5069064;28;20039;-85
2023/09/02 10:07:56;;;;;;;13.63;6.40;;;;;;;;;;5074576;28;20032;-86
2023/09/02 10:10:26;;;;;;;11.10;5.45;;;;;;;;;;5063232;28;20029;-86
2023/09/02 10:12:55;;;;;;;8.00;4.13;;;;;;;;;;5073904;28;20404;-86
2023/09/02 10:15:24;;;;;;;7.93;2.92;;;;;;;;;;5074633;28;20020;-86
2023/09/02 10:17:50;;;;;;;6.70;2.90;;;;;;;;;;5074138;28;20013;-86
2023/09/02 10:20:15;;;;;;;6.10;2.70;;;;;;;;;;5072372;28;20027;-86
2023/09/02 10:22:43;;;;;;;5.80;2.55;;;;;;;;;;5067582;28;20499;-86
2023/09/02 10:25:19;;;;;;;4.03;1.98;;;;;;;;;;5074290;28;20016;-86
2023/09/02 10:27:50;;;;;;;8.68;2.55;;;;;;;;;;5074167;28;20103;-86
2023/09/02 10:30:24;;;;;;;5.28;2.70;;;;;;;;;;5073645;28;20025;-86
2023/09/02 10:32:51;;;;;;;4.97;2.63;;;;;;;;;;5070735;28;20021;-86
2023/09/02 10:35:21;;;;;;;1.85;1.33;;;;;;;;;;5063739;28;20079;-86
2023/09/02 10:37:52;;;;;;;4.97;1.90;;;;;;;;;;5073987;28;20103;-86
2023/09/02 10:40:23;;;;;;;5.00;2.63;;;;;;;;;;5072999;28;20021;-87
2023/09/02 10:42:51;;;;;;;5.43;1.95;;;;;;;;;;5068424;28;20025;-85
2023/09/02 10:45:20;;;;;;;4.38;1.60;;;;;;;;;;5063850;28;20023;-86
2023/09/02 10:47:46;;;;;;;7.32;2.00;;;;;;;;;;5074572;28;20480;-86
2023/09/02 10:50:11;;;;;;;5.18;2.00;;;;;;;;;;5073831;28;20063;-86
2023/09/02 10:52:37;;;;;;;5.43;2.28;;;;;;;;;;5067532;28;20029;-86
2023/09/02 10:55:03;;;;;;;5.07;2.45;;;;;;;;;;5073852;28;20100;-86
2023/09/02 10:57:32;;;;;;;11.02;2.60;;;;;;;;;;5075081;28;20035;-86
2023/09/02 11:00:16;;;;;;;10.40;2.22;;;;;;;;;;5075019;28;20048;-85
2023/09/02 11:02:42;;;;;;;8.95;1.95;;;;;;;;;;5074608;28;20115;-86
2023/09/02 11:05:08;;;;;;;3.95;2.42;;;;;;;;;;5075153;28;20063;-85
2023/09/02 11:07:36;;;;;;;6.43;2.42;;;;;;;;;;5073866;28;20013;-86
2023/09/02 11:10:01;;;;;;;4.22;1.73;;;;;;;;;;5074599;28;20025;-85
2023/09/02 11:12:27;;;;;;;3.65;1.65;;;;;;;;;;5072807;28;20031;-86
2023/09/02 11:15:04;;;;;;;2.42;1.50;;;;;;;;;;5073589;28;20024;-86
2023/09/02 11:17:30;;;;;;;3.42;1.45;;;;;;;;;;5073225;28;20044;-86
2023/09/02 11:19:55;;;;;;;1.75;1.15;;;;;;;;;;5074923;28;20016;-86
2023/09/02 11:22:39;;;;;;;6.53;2.17;;;;;;;;;;5062259;28;20033;-86
2023/09/02 11:25:05;;;;;;;1.92;1.35;;;;;;;;;;5072350;28;20033;-86
2023/09/02 11:27:45;;;;;;;2.13;1.20;;;;;;;;;;5072285;28;20496;-86
2023/09/02 11:30:11;;;;;;;2.65;1.70;;;;;;;;;;5072869;28;20078;-86
2023/09/02 11:32:46;;;;;;;8.45;4.88;;;;;;;;;;5072597;28;20016;-86
2023/09/02 11:35:12;;;;;;;8.68;2.25;;;;;;;;;;5073538;28;20093;-87
2023/09/02 11:37:37;;;;;;;3.22;1.63;;;;;;;;;;5074505;28;20025;-86
2023/09/02 11:40:15;;;;;;;3.08;2.30;;;;;;;;;;5074428;28;20008;-86
2023/09/02 11:42:50;;;;;;;2.78;1.70;;;;;;;;;;5073120;28;20052;-86
2023/09/02 11:45:16;;;;;;;4.97;1.70;;;;;;;;;;5072228;28;20012;-86
2023/09/02 11:47:41;;;;;;;2.92;1.52;;;;;;;;;;5062913;28;20115;-86
2023/09/02 11:50:17;;;;;;;2.08;1.10;;;;;;;;;;5068682;28;20021;-87
2023/09/02 11:52:43;;;;;;;2.72;1.38;;;;;;;;;;5072583;28;20329;-86
2023/09/02 11:55:09;;;;;;;2.13;1.08;;;;;;;;;;5072331;28;20032;-86
2023/09/02 11:57:37;;;;;;;6.10;2.28;;;;;;;;;;5072422;28;20492;-87
2023/09/02 12:00:03;;;;;;;1.90;1.30;;;;;;;;;;5072312;28;20167;-87
2023/09/02 12:02:28;;;;;;;4.07;1.63;;;;;;;;;;5072569;28;20058;-87
2023/09/02 12:04:56;;;;;;;3.03;1.27;;;;;;;;;;5063168;28;20070;-87
2023/09/02 12:07:22;;;;;;;3.00;2.15;;;;;;;;;;5070994;28;20021;-87
2023/09/02 12:09:49;;;;;;;4.97;2.97;;;;;;;;;;5072149;28;20078;-87
2023/09/02 12:12:15;;;;;;;2.85;1.90;;;;;;;;;;5073891;28;20032;-87
2023/09/02 12:14:41;;;;;;;4.35;1.80;;;;;;;;;;5073062;28;20455;-87
2023/09/02 12:17:06;;;;;;;3.65;2.03;;;;;;;;;;5072970;28;20448;-86
2023/09/02 12:19:32;;;;;;;4.35;1.55;;;;;;;;;;5065839;28;20074;-87
2023/09/02 12:21:58;;;;;;;2.42;1.40;;;;;;;;;;5064650;28;20036;-86
2023/09/02 12:24:26;;;;;;;3.75;1.73;;;;;;;;;;5072541;28;20020;-87
2023/09/02 12:26:52;;;;;;;3.05;1.73;;;;;;;;;;5062212;28;20044;-86
2023/09/02 12:29:17;;;;;;;2.95;1.90;;;;;;;;;;5067739;28;20113;-87
2023/09/02 12:31:56;;;;;;;5.13;1.90;;;;;;;;;;5073527;28;20024;-87
2023/09/02 12:34:25;;;;;;;5.88;1.65;;;;;;;;;;5057726;28;20535;-86
2023/09/02 12:36:50;;;;;;;3.20;1.38;;;;;;;;;;5070514;28;20635;-86
2023/09/02 12:39:22;;;;;;;3.10;1.40;;;;;;;;;;5071922;28;20158;-87
2023/09/02 12:41:50;;;;;;;;;;;;;;;;;;5059790;28;20017;-85
2023/09/02 12:44:16;;;;;;;7.57;2.00;;;;;;;;;;5083150;28;19911;-87
2023/09/02 12:46:41;;;;;;;5.03;1.27;;;;;;;;;;5076230;28;20017;-87
2023/09/02 12:49:09;;;;;;;4.35;1.90;;;;;;;;;;5076073;28;20025;-87
2023/09/02 12:51:38;;;;;;;3.60;2.53;;;;;;;;;;5075924;28;20535;-87
2023/09/02 12:54:08;;;;;;;4.30;1.73;;;;;;;;;;5062722;28;20017;-87
2023/09/02 12:56:33;;;;;;;3.25;1.45;;;;;;;;;;5074745;28;20053;-87
2023/09/02 12:58:58;;;;;;;4.50;2.10;;;;;;;;;;5076635;28;20016;-87
2023/09/02 13:01:24;;;;;;;6.18;1.50;;;;;;;;;;5075952;28;20024;-87
2023/09/02 13:03:49;;;;;;;2.78;1.75;;;;;;;;;;5061658;28;20021;-86
2023/09/02 13:06:17;;;;;;;4.00;1.73;;;;;;;;;;5074902;28;20439;-87
2023/09/02 13:08:43;;;;;;;5.90;2.05;;;;;;;;;;5075497;28;20072;-87
2023/09/02 13:11:08;;;;;;;2.00;1.50;;;;;;;;;;5077089;28;20020;-86
2023/09/02 13:13:34;;;;;;;6.88;2.00;;;;;;;;;;5068897;28;20020;-86
2023/09/02 13:15:59;;;;;;;2.45;1.63;;;;;;;;;;5075757;28;20028;-87
2023/09/02 13:18:28;;;;;;;4.05;1.75;;;;;;;;;;5076273;28;20104;-86
2023/09/02 13:20:53;;;;;;;4.38;2.28;;;;;;;;;;5076516;28;20094;-87
2023/09/02 13:23:20;;;;;;;2.97;1.38;;;;;;;;;;5075571;28;20012;-86
2023/09/02 13:25:49;;;;;;;2.00;1.30;;;;;;;;;;5077468;28;20035;-87
2023/09/02 13:28:14;;;;;;;5.72;2.10;;;;;;;;;;5077158;28;20063;-87
2023/09/02 13:30:40;;;;;;;5.43;1.40;;;;;;;;;;5076404;28;20087;-87
2023/09/02 13:33:05;;;;;;;5.57;1.42;;;;;;;;;;5075312;28;20357;-87
2023/09/02 13:35:31;;;;;;;4.00;1.60;;;;;;;;;;5075435;28;20032;-87
2023/09/02 13:37:56;;;;;;;3.72;1.40;;;;;;;;;;5074934;28;20013;-87
2023/09/02 13:40:23;;;;;;;4.05;1.27;;;;;;;;;;5075409;28;20028;-87
2023/09/02 13:42:48;;;;;;;11.57;1.60;;;;;;;;;;5075957;28;20107;-87
2023/09/02 13:45:14;;;;;;;4.30;1.50;;;;;;;;;;5074062;28;20136;-88
2023/09/02 13:47:49;;;;;;;2.80;1.80;;;;;;;;;;5075313;28;20016;-87
2023/09/02 13:50:15;;;;;;;3.92;1.83;;;;;;;;;;5076064;28;20020;-87
2023/09/02 13:52:42;;;;;;;2.45;1.60;;;;;;;;;;5073850;28;20033;-87
2023/09/02 13:55:07;;;;;;;3.28;1.77;;;;;;;;;;5074422;28;20092;-87
2023/09/02 13:57:35;;;;;;;2.22;1.60;;;;;;;;;;5075073;28;20052;-87
2023/09/02 14:00:02;;;;;;;6.10;2.08;;;;;;;;;;5074925;28;20032;-87
2023/09/02 14:02:28;;;;;;;9.10;5.97;;;;;;;;;;5067786;28;20161;-87
2023/09/02 14:04:53;;;;;;;10.73;5.40;;;;;;;;;;5074711;28;20523;-87
2023/09/02 14:07:18;;;;;;;6.63;4.80;;;;;;;;;;5074684;28;20154;-87
2023/09/02 14:09:45;;;;;;;10.15;5.70;;;;;;;;;;5074617;28;20029;-87
2023/09/02 14:12:11;;;;;;;9.23;4.88;;;;;;;;;;5073421;28;20055;-87
2023/09/02 14:14:37;;;;;;;15.13;8.18;;;;;;;;;;5075840;28;20020;-87
2023/09/02 14:17:02;;;;;;;21.20;9.90;;;;;;;;;;5074466;28;20025;-87
2023/09/02 14:19:30;;;;;;;12.05;7.68;;;;;;;;;;5074390;28;20017;-87
2023/09/02 14:21:55;;;;;;;18.52;8.45;;;;;;;;;;5068822;28;20103;-86
2023/09/02 14:24:20;;;;;;;28.52;13.80;;;;;;;;;;5074421;28;20052;-87
2023/09/02 14:27:05;;;;;;;20.73;12.00;;;;;;;;;;5074615;28;20436;-87
2023/09/02 14:29:30;;;;;;;17.42;10.75;;;;;;;;;;5074051;28;20123;-87
2023/09/02 14:31:55;;;;;;;23.92;11.75;;;;;;;;;;5071629;28;20063;-87
2023/09/02 14:34:27;;;;;;;20.20;11.50;;;;;;;;;;5073250;28;20127;-87
2023/09/02 14:36:52;;;;;;;15.75;9.48;;;;;;;;;;5074752;28;20024;-87